Harbor Queen — WCX8035 — position and weather

sailwx.info

Track history (hours):
 
Tides and Currents Weather Stations Pressure Air Temp Water Temp Dewpoint Dewpoint Depression Visibility Wind Speed Wind Dir Waves Ship Positions

Harbor Queen

Owner: Golden Gate Scenic Steamship Corp, SAN FRANCISCO, CA. More information available from US FCC via Universal Licensing System and Coast Guard Vessel Documentation Center.

Last reported at 2018-Jul-17 22:30 UTC. Time now 2018-Jul-17 22:41 UTC.
Position N 37°49' W 122°25'.

Length 25 m; draft 2.6 m.

Type: Passenger vessel. MMSI: 366975740.

Date/timePositionNaut miles runAvg speedWind from/ knotsBaromVisibWave heightAir tempDewpointWater temp
2018-Jul-17 22:30N 37°49' W 122°25'3 5.5
2018-Jul-17 22:00N 37°49' W 122°28'3 5.5
2018-Jul-17 21:30N 37°49' W 122°25'1 1.7
2018-Jul-17 21:00N 37°49' W 122°25'2 4.4
2018-Jul-17 20:30N 37°49' W 122°28'2 4.3
2018-Jul-17 20:00N 37°49' W 122°25'0 0.0
2018-Jul-17 19:30N 37°49' W 122°25'1 1.6
2018-Jul-17 19:00N 37°49' W 122°25'2 3.6
2018-Jul-17 18:30N 37°49' W 122°27'2 3.5
2018-Jul-17 18:00N 37°49' W 122°25'2 4.5
2018-Jul-17 17:30N 37°50' W 122°27'2 4.5
2018-Jul-17 17:00N 37°49' W 122°25'0 0.0
2018-Jul-17 02:20N 37°49' W 122°25'1 1.7
2018-Jul-17 02:00N 37°49' W 122°24'1 2.0
2018-Jul-17 01:30N 37°49' W 122°25'2 3.7
2018-Jul-17 01:00N 37°49' W 122°27'2 3.8
2018-Jul-17 00:30N 37°49' W 122°25'2 1.8
2018-Jul-16 23:30N 37°49' W 122°27'2 3.6
2018-Jul-16 23:00N 37°49' W 122°25'3 5.5
2018-Jul-16 22:30N 37°49' W 122°28'3 5.5
2018-Jul-16 22:00N 37°49' W 122°25'1 1.2
2018-Jul-16 21:30N 37°49' W 122°24'2 5.0
2018-Jul-16 21:00N 37°49' W 122°27'2 4.1
2018-Jul-16 20:30N 37°49' W 122°25'0 0.0
2018-Jul-16 20:00N 37°49' W 122°25'1 2.2
2018-Jul-16 19:30N 37°50' W 122°25'2 3.1
2018-Jul-16 19:00N 37°49' W 122°27'1 0.3
2018-Jul-16 14:46N 37°49' W 122°25'0 0.0
2018-Jul-16 02:26N 37°49' W 122°25'0 1.0
2018-Jul-16 02:00N 37°49' W 122°24'1 2.3
2018-Jul-16 01:30N 37°50' W 122°25'2 3.9
2018-Jul-16 01:00N 37°49' W 122°28'2 4.2
2018-Jul-16 00:30N 37°49' W 122°25'1 1.8
2018-Jul-16 00:00N 37°49' W 122°25'2 3.6
2018-Jul-15 23:30N 37°49' W 122°27'2 3.8
2018-Jul-15 23:00N 37°49' W 122°25'2 4.6
2018-Jul-15 22:30N 37°49' W 122°28'2 4.6
2018-Jul-15 22:00N 37°49' W 122°25'1 1.5
2018-Jul-15 21:30N 37°49' W 122°25'2 4.0
2018-Jul-15 21:00N 37°49' W 122°27'2 3.7
2018-Jul-15 20:30N 37°49' W 122°25'0 0.0
2018-Jul-15 20:00N 37°49' W 122°25'1 2.2
2018-Jul-15 19:30N 37°50' W 122°25'1 3.0
2018-Jul-15 19:00N 37°49' W 122°27'1 2.7
2018-Jul-15 18:30N 37°49' W 122°25'0 0.0
2018-Jul-15 02:28N 37°49' W 122°25'2 3.3
2018-Jul-15 02:00N 37°48' W 122°23'3 5.6
2018-Jul-15 01:31N 37°50' W 122°26'1 1.9
2018-Jul-15 01:00N 37°49' W 122°26'1 1.5
2018-Jul-15 00:30N 37°49' W 122°25'1 1.9
2018-Jul-15 00:00N 37°50' W 122°25'2 4.0
2018-Jul-14 23:30N 37°49' W 122°27'2 4.1
2018-Jul-14 23:00N 37°49' W 122°25'2 4.3
2018-Jul-14 22:30N 37°50' W 122°27'2 4.3
2018-Jul-14 22:00N 37°49' W 122°25'1 1.1
2018-Jul-14 21:30N 37°49' W 122°24'3 5.3
2018-Jul-14 21:00N 37°49' W 122°28'2 4.5
2018-Jul-14 20:30N 37°49' W 122°25'0 0.0
2018-Jul-14 20:00N 37°49' W 122°25'1 2.5
2018-Jul-14 19:30N 37°50' W 122°25'1 1.9
2018-Jul-14 19:00N 37°49' W 122°26'1 0.1
2018-Jul-14 02:20N 37°49' W 122°25'1 2.1
2018-Jul-14 02:00N 37°49' W 122°24'1 2.3
2018-Jul-14 01:31N 37°49' W 122°25'2 4.1
2018-Jul-14 01:00N 37°49' W 122°27'2 3.7
2018-Jul-14 00:30N 37°49' W 122°25'1 2.0
2018-Jul-14 00:00N 37°50' W 122°25'2 3.8
2018-Jul-13 23:31N 37°49' W 122°27'2 3.8
2018-Jul-13 23:01N 37°49' W 122°25'2 4.8
2018-Jul-13 22:30N 37°49' W 122°28'2 4.9
2018-Jul-13 22:00N 37°49' W 122°25'0 0.7
2018-Jul-13 21:30N 37°49' W 122°25'3 6.0
2018-Jul-13 21:01N 37°49' W 122°28'3 5.5
2018-Jul-13 20:31N 37°49' W 122°25'0 0.0
2018-Jul-13 20:00N 37°49' W 122°25'1 1.7
2018-Jul-13 19:31N 37°49' W 122°25'2 3.2
2018-Jul-13 19:00N 37°49' W 122°27'2 3.4
2018-Jul-13 18:30N 37°49' W 122°25'0 0.0
2018-Jul-13 18:00N 37°49' W 122°25'0 0.0
2018-Jul-13 17:30N 37°49' W 122°25'0 0.0
2018-Jul-13 17:00N 37°49' W 122°25'0 0.0
2018-Jul-13 16:30N 37°49' W 122°25'0 0.0
2018-Jul-13 15:59N 37°49' W 122°25'0 0.0
2018-Jul-13 15:30N 37°49' W 122°25'0 0.0
2018-Jul-13 02:20N 37°49' W 122°25'1 3.2
2018-Jul-13 02:00N 37°48' W 122°24'2 3.6
2018-Jul-13 01:30N 37°50' W 122°25'2 3.2
2018-Jul-13 01:00N 37°49' W 122°27'2 3.3
2018-Jul-13 00:30N 37°49' W 122°25'1 2.0
2018-Jul-13 00:00N 37°50' W 122°25'2 3.4
2018-Jul-12 23:30N 37°49' W 122°27'2 3.6
2018-Jul-12 23:00N 37°49' W 122°25'3 5.1
2018-Jul-12 22:30N 37°49' W 122°28'3 5.1
2018-Jul-12 22:00N 37°49' W 122°25'1 1.4
2018-Jul-12 21:30N 37°49' W 122°25'3 5.1
2018-Jul-12 21:00N 37°49' W 122°28'2 4.7
2018-Jul-12 20:30N 37°49' W 122°25'0 0.0
2018-Jul-12 20:00N 37°49' W 122°25'1 2.5
2018-Jul-12 19:30N 37°50' W 122°25'1 2.0
2018-Jul-12 19:00N 37°49' W 122°26'1 0.1
2018-Jul-11 23:41N 37°49' W 122°25'0 0.3
2018-Jul-11 23:30N 37°49' W 122°25'1 1.7
2018-Jul-11 23:00N 37°49' W 122°25'3 6.1
2018-Jul-11 22:30N 37°52' W 122°26'3 6.4
2018-Jul-11 22:00N 37°50' W 122°28'3 5.8
2018-Jul-11 21:30N 37°49' W 122°25'0 0.1
2018-Jul-11 21:00N 37°49' W 122°25'0 0.0
2018-Jul-11 20:30N 37°49' W 122°25'0 0.0
2018-Jul-11 20:00N 37°49' W 122°25'0 0.0
2018-Jul-11 19:30N 37°49' W 122°25'0 0.0
2018-Jul-11 19:00N 37°49' W 122°25'0 0.0
2018-Jul-11 18:30N 37°49' W 122°25'0 0.0
2018-Jul-11 18:00N 37°49' W 122°25'0 0.0
2018-Jul-11 17:30N 37°49' W 122°25'0 0.0
2018-Jul-11 17:00N 37°49' W 122°25'0 0.0
2018-Jul-11 16:30N 37°49' W 122°25'0 0.0
2018-Jul-11 16:00N 37°49' W 122°25'0 0.0
2018-Jul-11 15:30N 37°49' W 122°25'0 0.0
2018-Jul-11 02:25N 37°49' W 122°25'1 1.8
2018-Jul-11 02:00N 37°49' W 122°24'1 2.9
2018-Jul-11 01:30N 37°50' W 122°25'1 2.6
2018-Jul-11 01:00N 37°49' W 122°27'1 2.6
2018-Jul-11 00:30N 37°49' W 122°25'1 1.6
2018-Jul-11 00:00N 37°49' W 122°25'2 3.8
2018-Jul-10 23:30N 37°49' W 122°27'2 3.7
2018-Jul-10 23:00N 37°49' W 122°25'2 4.6
2018-Jul-10 22:30N 37°50' W 122°28'2 4.6
2018-Jul-10 22:00N 37°49' W 122°25'0 1.0
2018-Jul-10 21:30N 37°49' W 122°24'3 6.2
2018-Jul-10 21:00N 37°49' W 122°28'3 5.6
2018-Jul-10 20:30N 37°49' W 122°25'0 0.0
2018-Jul-10 20:00N 37°49' W 122°25'0 0.0
2018-Jul-10 19:30N 37°49' W 122°25'1 1.8
2018-Jul-10 19:00N 37°49' W 122°25'2 3.6
2018-Jul-10 18:30N 37°49' W 122°27'2 3.7
2018-Jul-10 18:01N 37°49' W 122°25'2 4.9
2018-Jul-10 17:31N 37°49' W 122°28'2 4.8
2018-Jul-10 17:00N 37°49' W 122°25'0 0.0
2018-Jul-10 02:29N 37°49' W 122°25'2 3.4
2018-Jul-10 02:00N 37°48' W 122°23'4 7.2
2018-Jul-10 01:30N 37°50' W 122°26'2 3.0
2018-Jul-10 01:00N 37°49' W 122°27'2 3.1
2018-Jul-10 00:30N 37°49' W 122°25'1 1.7
2018-Jul-10 00:00N 37°49' W 122°25'2 3.5
2018-Jul-09 23:30N 37°49' W 122°27'2 3.4
2018-Jul-09 23:00N 37°49' W 122°25'2 4.9
2018-Jul-09 22:30N 37°49' W 122°28'2 4.9
2018-Jul-09 22:00N 37°49' W 122°25'1 1.2
2018-Jul-09 21:30N 37°49' W 122°24'3 5.6
2018-Jul-09 21:00N 37°49' W 122°28'3 5.0
2018-Jul-09 20:30N 37°49' W 122°25'0 0.0
2018-Jul-09 20:00N 37°49' W 122°25'1 2.3
2018-Jul-09 19:30N 37°50' W 122°25'1 2.8
2018-Jul-09 19:00N 37°49' W 122°27'1 2.9
2018-Jul-09 18:30N 37°49' W 122°25'0 0.0
2018-Jul-09 02:20N 37°49' W 122°25'1 1.8
2018-Jul-09 02:00N 37°49' W 122°24'1 2.4
2018-Jul-09 01:30N 37°50' W 122°25'2 3.3
2018-Jul-09 01:00N 37°49' W 122°27'2 3.4
2018-Jul-09 00:30N 37°49' W 122°25'1 1.7
2018-Jul-09 00:00N 37°49' W 122°25'2 3.5
2018-Jul-08 23:30N 37°49' W 122°27'2 3.2
2018-Jul-08 23:00N 37°49' W 122°25'2 4.0
2018-Jul-08 22:30N 37°49' W 122°27'2 4.0
2018-Jul-08 22:00N 37°49' W 122°25'1 1.5
2018-Jul-08 21:30N 37°49' W 122°25'2 4.0
2018-Jul-08 21:00N 37°49' W 122°27'2 3.9
2018-Jul-08 20:30N 37°49' W 122°25'0 0.0
2018-Jul-08 20:00N 37°49' W 122°25'1 2.2
2018-Jul-08 19:30N 37°50' W 122°25'1 2.7
2018-Jul-08 19:00N 37°49' W 122°27'1 3.0
2018-Jul-08 18:30N 37°49' W 122°25'0 0.0
2018-Jul-08 02:27N 37°49' W 122°25'1 1.3
2018-Jul-08 02:00N 37°49' W 122°24'1 2.4
2018-Jul-08 01:30N 37°50' W 122°25'2 3.3
2018-Jul-08 01:00N 37°49' W 122°27'2 3.4
2018-Jul-08 00:30N 37°49' W 122°25'3 6.1
2018-Jul-08 00:00N 37°49' W 122°29'2 3.8
2018-Jul-07 23:30N 37°49' W 122°26'1 2.3
2018-Jul-07 23:00N 37°49' W 122°25'3 5.1
2018-Jul-07 22:30N 37°49' W 122°28'  
Track history (hours):
 
Tides and Currents Weather Stations Pressure Air Temp Water Temp Dewpoint Dewpoint Depression Visibility Wind Speed Wind Dir Waves Ship Positions

Harbor Queen

Owner: Golden Gate Scenic Steamship Corp, SAN FRANCISCO, CA. More information available from US FCC via Universal Licensing System and Coast Guard Vessel Documentation Center.

Last reported at 2018-Jul-17 22:30 UTC. Time now 2018-Jul-17 22:41 UTC.
Position N 37°49' W 122°25'.

Length 25 m; draft 2.6 m.

Type: Passenger vessel. MMSI: 366975740.

Date/timePositionNaut miles runAvg speedWind from/ knotsBaromVisibWave heightAir tempDewpointWater temp
2018-Jul-17 22:30N 37°49' W 122°25'3 5.5
2018-Jul-17 22:00N 37°49' W 122°28'3 5.5
2018-Jul-17 21:30N 37°49' W 122°25'1 1.7
2018-Jul-17 21:00N 37°49' W 122°25'2 4.4
2018-Jul-17 20:30N 37°49' W 122°28'2 4.3
2018-Jul-17 20:00N 37°49' W 122°25'0 0.0
2018-Jul-17 19:30N 37°49' W 122°25'1 1.6
2018-Jul-17 19:00N 37°49' W 122°25'2 3.6
2018-Jul-17 18:30N 37°49' W 122°27'2 3.5
2018-Jul-17 18:00N 37°49' W 122°25'2 4.5
2018-Jul-17 17:30N 37°50' W 122°27'2 4.5
2018-Jul-17 17:00N 37°49' W 122°25'0 0.0
2018-Jul-17 02:20N 37°49' W 122°25'1 1.7
2018-Jul-17 02:00N 37°49' W 122°24'1 2.0
2018-Jul-17 01:30N 37°49' W 122°25'2 3.7
2018-Jul-17 01:00N 37°49' W 122°27'2 3.8
2018-Jul-17 00:30N 37°49' W 122°25'2 1.8
2018-Jul-16 23:30N 37°49' W 122°27'2 3.6
2018-Jul-16 23:00N 37°49' W 122°25'3 5.5
2018-Jul-16 22:30N 37°49' W 122°28'3 5.5
2018-Jul-16 22:00N 37°49' W 122°25'1 1.2
2018-Jul-16 21:30N 37°49' W 122°24'2 5.0
2018-Jul-16 21:00N 37°49' W 122°27'2 4.1
2018-Jul-16 20:30N 37°49' W 122°25'0 0.0
2018-Jul-16 20:00N 37°49' W 122°25'1 2.2
2018-Jul-16 19:30N 37°50' W 122°25'2 3.1
2018-Jul-16 19:00N 37°49' W 122°27'1 0.3
2018-Jul-16 14:46N 37°49' W 122°25'0 0.0
2018-Jul-16 02:26N 37°49' W 122°25'0 1.0
2018-Jul-16 02:00N 37°49' W 122°24'1 2.3
2018-Jul-16 01:30N 37°50' W 122°25'2 3.9
2018-Jul-16 01:00N 37°49' W 122°28'2 4.2
2018-Jul-16 00:30N 37°49' W 122°25'1 1.8
2018-Jul-16 00:00N 37°49' W 122°25'2 3.6
2018-Jul-15 23:30N 37°49' W 122°27'2 3.8
2018-Jul-15 23:00N 37°49' W 122°25'2 4.6
2018-Jul-15 22:30N 37°49' W 122°28'2 4.6
2018-Jul-15 22:00N 37°49' W 122°25'1 1.5
2018-Jul-15 21:30N 37°49' W 122°25'2 4.0
2018-Jul-15 21:00N 37°49' W 122°27'2 3.7
2018-Jul-15 20:30N 37°49' W 122°25'0 0.0
2018-Jul-15 20:00N 37°49' W 122°25'1 2.2
2018-Jul-15 19:30N 37°50' W 122°25'1 3.0
2018-Jul-15 19:00N 37°49' W 122°27'1 2.7
2018-Jul-15 18:30N 37°49' W 122°25'0 0.0
2018-Jul-15 02:28N 37°49' W 122°25'2 3.3
2018-Jul-15 02:00N 37°48' W 122°23'3 5.6
2018-Jul-15 01:31N 37°50' W 122°26'1 1.9
2018-Jul-15 01:00N 37°49' W 122°26'1 1.5
2018-Jul-15 00:30N 37°49' W 122°25'1 1.9
2018-Jul-15 00:00N 37°50' W 122°25'2 4.0
2018-Jul-14 23:30N 37°49' W 122°27'2 4.1
2018-Jul-14 23:00N 37°49' W 122°25'2 4.3
2018-Jul-14 22:30N 37°50' W 122°27'2 4.3
2018-Jul-14 22:00N 37°49' W 122°25'1 1.1
2018-Jul-14 21:30N 37°49' W 122°24'3 5.3
2018-Jul-14 21:00N 37°49' W 122°28'2 4.5
2018-Jul-14 20:30N 37°49' W 122°25'0 0.0
2018-Jul-14 20:00N 37°49' W 122°25'1 2.5
2018-Jul-14 19:30N 37°50' W 122°25'1 1.9
2018-Jul-14 19:00N 37°49' W 122°26'1 0.1
2018-Jul-14 02:20N 37°49' W 122°25'1 2.1
2018-Jul-14 02:00N 37°49' W 122°24'1 2.3
2018-Jul-14 01:31N 37°49' W 122°25'2 4.1
2018-Jul-14 01:00N 37°49' W 122°27'2 3.7
2018-Jul-14 00:30N 37°49' W 122°25'1 2.0
2018-Jul-14 00:00N 37°50' W 122°25'2 3.8
2018-Jul-13 23:31N 37°49' W 122°27'2 3.8
2018-Jul-13 23:01N 37°49' W 122°25'2 4.8
2018-Jul-13 22:30N 37°49' W 122°28'2 4.9
2018-Jul-13 22:00N 37°49' W 122°25'0 0.7
2018-Jul-13 21:30N 37°49' W 122°25'3 6.0
2018-Jul-13 21:01N 37°49' W 122°28'3 5.5
2018-Jul-13 20:31N 37°49' W 122°25'0 0.0
2018-Jul-13 20:00N 37°49' W 122°25'1 1.7
2018-Jul-13 19:31N 37°49' W 122°25'2 3.2
2018-Jul-13 19:00N 37°49' W 122°27'2 3.4
2018-Jul-13 18:30N 37°49' W 122°25'0 0.0
2018-Jul-13 18:00N 37°49' W 122°25'0 0.0
2018-Jul-13 17:30N 37°49' W 122°25'0 0.0
2018-Jul-13 17:00N 37°49' W 122°25'0 0.0
2018-Jul-13 16:30N 37°49' W 122°25'0 0.0
2018-Jul-13 15:59N 37°49' W 122°25'0 0.0
2018-Jul-13 15:30N 37°49' W 122°25'0 0.0
2018-Jul-13 02:20N 37°49' W 122°25'1 3.2
2018-Jul-13 02:00N 37°48' W 122°24'2 3.6
2018-Jul-13 01:30N 37°50' W 122°25'2 3.2
2018-Jul-13 01:00N 37°49' W 122°27'2 3.3
2018-Jul-13 00:30N 37°49' W 122°25'1 2.0
2018-Jul-13 00:00N 37°50' W 122°25'2 3.4
2018-Jul-12 23:30N 37°49' W 122°27'2 3.6
2018-Jul-12 23:00N 37°49' W 122°25'3 5.1
2018-Jul-12 22:30N 37°49' W 122°28'3 5.1
2018-Jul-12 22:00N 37°49' W 122°25'1 1.4
2018-Jul-12 21:30N 37°49' W 122°25'3 5.1
2018-Jul-12 21:00N 37°49' W 122°28'2 4.7
2018-Jul-12 20:30N 37°49' W 122°25'0 0.0
2018-Jul-12 20:00N 37°49' W 122°25'1 2.5
2018-Jul-12 19:30N 37°50' W 122°25'1 2.0
2018-Jul-12 19:00N 37°49' W 122°26'1 0.1
2018-Jul-11 23:41N 37°49' W 122°25'0 0.3
2018-Jul-11 23:30N 37°49' W 122°25'1 1.7
2018-Jul-11 23:00N 37°49' W 122°25'3 6.1
2018-Jul-11 22:30N 37°52' W 122°26'3 6.4
2018-Jul-11 22:00N 37°50' W 122°28'3 5.8
2018-Jul-11 21:30N 37°49' W 122°25'0 0.1
2018-Jul-11 21:00N 37°49' W 122°25'0 0.0
2018-Jul-11 20:30N 37°49' W 122°25'0 0.0
2018-Jul-11 20:00N 37°49' W 122°25'0 0.0
2018-Jul-11 19:30N 37°49' W 122°25'0 0.0
2018-Jul-11 19:00N 37°49' W 122°25'0 0.0
2018-Jul-11 18:30N 37°49' W 122°25'0 0.0
2018-Jul-11 18:00N 37°49' W 122°25'0 0.0
2018-Jul-11 17:30N 37°49' W 122°25'0 0.0
2018-Jul-11 17:00N 37°49' W 122°25'0 0.0
2018-Jul-11 16:30N 37°49' W 122°25'0 0.0
2018-Jul-11 16:00N 37°49' W 122°25'0 0.0
2018-Jul-11 15:30N 37°49' W 122°25'0 0.0
2018-Jul-11 02:25N 37°49' W 122°25'1 1.8
2018-Jul-11 02:00N 37°49' W 122°24'1 2.9
2018-Jul-11 01:30N 37°50' W 122°25'1 2.6
2018-Jul-11 01:00N 37°49' W 122°27'1 2.6
2018-Jul-11 00:30N 37°49' W 122°25'1 1.6
2018-Jul-11 00:00N 37°49' W 122°25'2 3.8
2018-Jul-10 23:30N 37°49' W 122°27'2 3.7
2018-Jul-10 23:00N 37°49' W 122°25'2 4.6
2018-Jul-10 22:30N 37°50' W 122°28'2 4.6
2018-Jul-10 22:00N 37°49' W 122°25'0 1.0
2018-Jul-10 21:30N 37°49' W 122°24'3 6.2
2018-Jul-10 21:00N 37°49' W 122°28'3 5.6
2018-Jul-10 20:30N 37°49' W 122°25'0 0.0
2018-Jul-10 20:00N 37°49' W 122°25'0 0.0
2018-Jul-10 19:30N 37°49' W 122°25'1 1.8
2018-Jul-10 19:00N 37°49' W 122°25'2 3.6
2018-Jul-10 18:30N 37°49' W 122°27'2 3.7
2018-Jul-10 18:01N 37°49' W 122°25'2 4.9
2018-Jul-10 17:31N 37°49' W 122°28'2 4.8
2018-Jul-10 17:00N 37°49' W 122°25'0 0.0
2018-Jul-10 02:29N 37°49' W 122°25'2 3.4
2018-Jul-10 02:00N 37°48' W 122°23'4 7.2
2018-Jul-10 01:30N 37°50' W 122°26'2 3.0
2018-Jul-10 01:00N 37°49' W 122°27'2 3.1
2018-Jul-10 00:30N 37°49' W 122°25'1 1.7
2018-Jul-10 00:00N 37°49' W 122°25'2 3.5
2018-Jul-09 23:30N 37°49' W 122°27'2 3.4
2018-Jul-09 23:00N 37°49' W 122°25'2 4.9
2018-Jul-09 22:30N 37°49' W 122°28'2 4.9
2018-Jul-09 22:00N 37°49' W 122°25'1 1.2
2018-Jul-09 21:30N 37°49' W 122°24'3 5.6
2018-Jul-09 21:00N 37°49' W 122°28'3 5.0
2018-Jul-09 20:30N 37°49' W 122°25'0 0.0
2018-Jul-09 20:00N 37°49' W 122°25'1 2.3
2018-Jul-09 19:30N 37°50' W 122°25'1 2.8
2018-Jul-09 19:00N 37°49' W 122°27'1 2.9
2018-Jul-09 18:30N 37°49' W 122°25'0 0.0
2018-Jul-09 02:20N 37°49' W 122°25'1 1.8
2018-Jul-09 02:00N 37°49' W 122°24'1 2.4
2018-Jul-09 01:30N 37°50' W 122°25'2 3.3
2018-Jul-09 01:00N 37°49' W 122°27'2 3.4
2018-Jul-09 00:30N 37°49' W 122°25'1 1.7
2018-Jul-09 00:00N 37°49' W 122°25'2 3.5
2018-Jul-08 23:30N 37°49' W 122°27'2 3.2
2018-Jul-08 23:00N 37°49' W 122°25'2 4.0
2018-Jul-08 22:30N 37°49' W 122°27'2 4.0
2018-Jul-08 22:00N 37°49' W 122°25'1 1.5
2018-Jul-08 21:30N 37°49' W 122°25'2 4.0
2018-Jul-08 21:00N 37°49' W 122°27'2 3.9
2018-Jul-08 20:30N 37°49' W 122°25'0 0.0
2018-Jul-08 20:00N 37°49' W 122°25'1 2.2
2018-Jul-08 19:30N 37°50' W 122°25'1 2.7
2018-Jul-08 19:00N 37°49' W 122°27'1 3.0
2018-Jul-08 18:30N 37°49' W 122°25'0 0.0
2018-Jul-08 02:27N 37°49' W 122°25'1 1.3
2018-Jul-08 02:00N 37°49' W 122°24'1 2.4
2018-Jul-08 01:30N 37°50' W 122°25'2 3.3
2018-Jul-08 01:00N 37°49' W 122°27'2 3.4
2018-Jul-08 00:30N 37°49' W 122°25'3 6.1
2018-Jul-08 00:00N 37°49' W 122°29'2 3.8
2018-Jul-07 23:30N 37°49' W 122°26'1 2.3
2018-Jul-07 23:00N 37°49' W 122°25'3 5.1
2018-Jul-07 22:30N 37°49' W 122°28'  

Dump ship's entire track history